createdAt,value
2022-10-29T00:03:37.149Z,100805.78
2022-10-29T00:08:40.450Z,100804.47
2022-10-29T00:13:43.777Z,100810.00
2022-10-29T00:18:46.569Z,100805.22
2022-10-29T00:23:49.704Z,100804.69
2022-10-29T00:28:56.484Z,100798.38
2022-10-29T00:33:58.976Z,100793.69
2022-10-29T00:39:01.333Z,100785.78
2022-10-29T00:44:36.345Z,100776.41
2022-10-29T00:49:40.500Z,100774.06
2022-10-29T00:54:44.309Z,100772.84
2022-10-29T01:04:52.751Z,100749.28
2022-10-29T01:09:55.100Z,100733.59
2022-10-29T01:15:09.144Z,100733.63
2022-10-29T01:20:36.903Z,100746.88
2022-10-29T01:26:03.855Z,100725.03
2022-10-29T01:31:15.612Z,100737.19
2022-10-29T01:36:45.315Z,100739.19
2022-10-29T01:41:58.341Z,100721.00
2022-10-29T01:47:03.006Z,100708.69
2022-10-29T01:52:07.962Z,100708.72
2022-10-29T01:57:28.902Z,100716.22
2022-10-29T02:02:31.119Z,100702.38
2022-10-29T02:07:33.401Z,100699.59
2022-10-29T02:12:48.392Z,100702.81
2022-10-29T02:17:50.899Z,100710.72
2022-10-29T02:22:53.235Z,100711.47
2022-10-29T02:27:56.097Z,100703.91
2022-10-29T02:32:59.030Z,100694.84
2022-10-29T02:38:01.540Z,100700.22
2022-10-29T02:43:03.869Z,100698.91
2022-10-29T02:48:06.503Z,100709.66
2022-10-29T02:53:08.861Z,100685.00
2022-10-29T02:58:11.287Z,100697.94
2022-10-29T03:03:14.117Z,100684.53
2022-10-29T03:08:16.652Z,100707.28
2022-10-29T03:13:18.919Z,100702.16
2022-10-29T03:18:21.262Z,100701.56
2022-10-29T03:23:23.705Z,100700.75
2022-10-29T03:28:28.256Z,100688.88
2022-10-29T03:33:30.728Z,100697.88
2022-10-29T03:38:33.373Z,100703.91
2022-10-29T03:43:37.367Z,100698.13
2022-10-29T03:48:39.758Z,100689.88
2022-10-29T03:53:42.319Z,100684.72
2022-10-29T03:58:44.585Z,100683.50
2022-10-29T04:03:47.177Z,100690.97
2022-10-29T04:08:49.424Z,100699.81
2022-10-29T04:13:54.821Z,100702.81
2022-10-29T04:18:57.103Z,100707.78
2022-10-29T04:29:22.668Z,100701.81
2022-10-29T04:34:24.911Z,100696.28
2022-10-29T04:39:27.168Z,100699.72
2022-10-29T04:44:29.425Z,100697.25
2022-10-29T04:49:31.813Z,100699.44
2022-10-29T04:54:34.135Z,100711.28
2022-10-29T04:59:36.460Z,100706.97
2022-10-29T05:04:38.760Z,100701.63
2022-10-29T05:09:41.099Z,100699.75
2022-10-29T05:14:43.458Z,100687.00
2022-10-29T05:19:45.798Z,100704.41
2022-10-29T05:24:48.134Z,100722.44
2022-10-29T05:29:50.414Z,100708.84
2022-10-29T05:34:52.761Z,100714.13
2022-10-29T05:39:55.303Z,100714.34
2022-10-29T05:44:57.642Z,100716.31
2022-10-29T05:49:59.944Z,100705.69
2022-10-29T05:55:02.437Z,100719.72
2022-10-29T06:00:05.164Z,100706.06
2022-10-29T06:05:14.265Z,100716.25
2022-10-29T06:10:16.558Z,100719.63
2022-10-29T06:15:19.295Z,100717.91
2022-10-29T06:20:22.501Z,100721.47
2022-10-29T06:25:25.466Z,100717.66
2022-10-29T06:30:28.890Z,100752.91
2022-10-29T06:35:31.812Z,100752.34
2022-10-29T06:40:34.224Z,100768.94
2022-10-29T06:45:36.527Z,100748.78
2022-10-29T06:50:38.768Z,100772.56
2022-10-29T06:55:41.739Z,100780.63
2022-10-29T07:00:44.652Z,100762.84
2022-10-29T07:05:47.512Z,100773.16
2022-10-29T07:10:54.020Z,100775.50
2022-10-29T07:15:56.324Z,100766.03
2022-10-29T07:20:58.707Z,100750.28
2022-10-29T07:26:02.582Z,100749.38
2022-10-29T07:31:05.049Z,100763.84
2022-10-29T07:36:07.633Z,100763.06
2022-10-29T07:41:10.193Z,100757.88
2022-10-29T07:46:12.490Z,100767.75
2022-10-29T07:51:14.737Z,100769.47
2022-10-29T07:56:17.013Z,100769.31
2022-10-29T08:01:19.543Z,100777.91
2022-10-29T08:06:21.897Z,100764.56
2022-10-29T08:11:24.388Z,100762.72
2022-10-29T08:16:26.856Z,100797.41
2022-10-29T08:21:29.187Z,100798.00
2022-10-29T08:26:32.499Z,100803.50
2022-10-29T08:31:34.819Z,100802.25
2022-10-29T08:36:37.221Z,100806.53
2022-10-29T08:42:18.954Z,100807.75
2022-10-29T08:47:22.888Z,100816.06
2022-10-29T08:52:28.625Z,100813.13
2022-10-29T08:57:34.003Z,100816.41
2022-10-29T09:02:36.464Z,100829.16
2022-10-29T09:07:44.461Z,100839.97
2022-10-29T09:13:08.393Z,100852.78
2022-10-29T09:18:19.535Z,100839.06
2022-10-29T09:23:43.301Z,100827.44
2022-10-29T09:29:16.475Z,100845.38
2022-10-29T09:34:44.246Z,100840.66
2022-10-29T09:39:48.050Z,100838.00
2022-10-29T09:44:53.729Z,100838.53
2022-10-29T09:50:15.659Z,100837.97
2022-10-29T09:55:22.884Z,100836.84
2022-10-29T10:00:29.762Z,100825.84
2022-10-29T10:05:34.313Z,100826.47
2022-10-29T10:11:05.005Z,100837.84
2022-10-29T10:16:07.548Z,100845.00
2022-10-29T10:21:30.951Z,100848.00
2022-10-29T10:26:39.423Z,100860.84
2022-10-29T10:31:43.897Z,100856.59
2022-10-29T10:36:55.781Z,100823.72
2022-10-29T10:42:01.545Z,100854.72
2022-10-29T10:47:07.761Z,100850.59
2022-10-29T10:52:17.578Z,100853.66
2022-10-29T10:57:22.852Z,100843.13
2022-10-29T11:02:33.969Z,100853.31
2022-10-29T11:07:38.241Z,100844.56
2022-10-29T11:12:54.470Z,100860.63
2022-10-29T11:18:01.426Z,100850.03
2022-10-29T11:23:24.138Z,100861.44
2022-10-29T11:28:41.338Z,100866.72
2022-10-29T11:34:14.098Z,100868.19
2022-10-29T11:39:18.150Z,100875.25
2022-10-29T11:44:21.877Z,100856.81
2022-10-29T11:49:36.131Z,100868.19
2022-10-29T11:54:38.829Z,100860.56
2022-10-29T12:00:18.667Z,100864.78
2022-10-29T12:05:39.291Z,100861.22
2022-10-29T12:11:11.050Z,100859.91
2022-10-29T12:16:54.245Z,100863.56
2022-10-29T12:22:18.265Z,100862.00
2022-10-29T12:27:27.573Z,100856.66
2022-10-29T12:32:43.780Z,100869.06
2022-10-29T12:38:04.185Z,100857.91
2022-10-29T12:43:12.332Z,100859.63
2022-10-29T12:48:21.055Z,100858.34
2022-10-29T12:53:28.912Z,100856.88
2022-10-29T12:58:43.288Z,100865.25
2022-10-29T13:04:01.001Z,100866.56
2022-10-29T13:09:11.914Z,100875.50
2022-10-29T13:14:18.842Z,100866.34
2022-10-29T13:19:35.520Z,100878.91
2022-10-29T13:24:37.809Z,100884.78
2022-10-29T13:29:41.807Z,100875.94
2022-10-29T13:34:59.169Z,100881.41
2022-10-29T13:40:23.244Z,100887.63
2022-10-29T13:45:25.659Z,100892.13
2022-10-29T13:50:28.219Z,100883.25
2022-10-29T13:55:33.148Z,100880.00
2022-10-29T14:00:36.823Z,100868.72
2022-10-29T14:05:39.791Z,100892.81
2022-10-29T14:10:42.035Z,100897.28
2022-10-29T14:16:08.000Z,100898.09
2022-10-29T14:21:30.757Z,100912.81
2022-10-29T14:26:35.258Z,100913.25
2022-10-29T14:31:37.679Z,100913.53
2022-10-29T14:36:42.379Z,100903.06
2022-10-29T14:41:47.552Z,100903.50
2022-10-29T14:46:58.123Z,100920.06
2022-10-29T14:52:07.071Z,100912.66
2022-10-29T14:57:15.316Z,100916.22
2022-10-29T15:02:37.035Z,100908.69
2022-10-29T15:07:40.158Z,100908.19
2022-10-29T15:12:42.685Z,100909.75
2022-10-29T15:18:13.528Z,100920.19
2022-10-29T15:23:24.660Z,100919.16
2022-10-29T15:28:31.182Z,100910.25
2022-10-29T15:33:33.620Z,100911.25
2022-10-29T15:38:52.135Z,100902.00
2022-10-29T15:43:56.948Z,100907.78
2022-10-29T15:48:59.307Z,100910.19
2022-10-29T15:54:03.366Z,100926.19
2022-10-29T15:59:05.743Z,100914.22
2022-10-29T16:04:09.523Z,100907.63
2022-10-29T16:09:18.105Z,100921.91
2022-10-29T16:14:20.477Z,100918.31
2022-10-29T16:19:22.875Z,100925.16
2022-10-29T16:24:27.043Z,100928.13
2022-10-29T16:29:29.458Z,100928.13
2022-10-29T16:34:31.787Z,100931.66
2022-10-29T16:39:34.079Z,100929.00
2022-10-29T16:44:36.472Z,100938.28
2022-10-29T16:49:38.847Z,100933.59
2022-10-29T16:54:41.155Z,100941.06
2022-10-29T16:59:43.476Z,100929.81
2022-10-29T17:04:45.811Z,100943.53
2022-10-29T17:09:48.228Z,100916.78
2022-10-29T17:14:50.558Z,100930.72
2022-10-29T17:19:53.878Z,100940.94
2022-10-29T17:24:56.212Z,100943.09
2022-10-29T17:29:58.558Z,100946.13
2022-10-29T17:35:00.977Z,100950.19
2022-10-29T17:40:07.132Z,100964.97
2022-10-29T17:45:11.123Z,100969.88
2022-10-29T17:50:13.475Z,100970.16
2022-10-29T17:55:15.958Z,100966.59
2022-10-29T18:00:18.586Z,100973.16
2022-10-29T18:05:20.887Z,100974.22
2022-10-29T18:10:23.149Z,100964.16
2022-10-29T18:15:25.462Z,100965.19
2022-10-29T18:20:27.781Z,100973.69
2022-10-29T18:25:30.068Z,100967.66
2022-10-29T18:30:32.453Z,100980.81
2022-10-29T18:35:34.798Z,100976.97
2022-10-29T18:40:37.447Z,100989.59
2022-10-29T18:45:39.837Z,100983.56
2022-10-29T18:50:42.149Z,100977.56
2022-10-29T18:55:52.673Z,100984.13
2022-10-29T19:00:55.139Z,100979.47
2022-10-29T19:06:01.563Z,100972.66
2022-10-29T19:11:08.969Z,100989.31
2022-10-29T19:16:13.514Z,100988.50
2022-10-29T19:21:19.056Z,100977.28
2022-10-29T19:26:21.428Z,100980.00
2022-10-29T19:31:29.369Z,100989.88
2022-10-29T19:36:31.757Z,100986.28
2022-10-29T19:41:34.458Z,100969.88
2022-10-29T19:46:36.743Z,100949.16
2022-10-29T19:51:40.516Z,100962.28
2022-10-29T19:56:42.845Z,100956.25
2022-10-29T20:01:47.224Z,100968.28
2022-10-29T20:06:49.782Z,100980.84
2022-10-29T20:11:52.046Z,100977.03
2022-10-29T20:16:54.305Z,100956.53
2022-10-29T20:21:56.865Z,100966.63
2022-10-29T20:26:59.150Z,100970.44
2022-10-29T20:32:01.401Z,100962.28
2022-10-29T20:37:03.704Z,100964.44
2022-10-29T20:42:06.080Z,100977.03
2022-10-29T20:47:08.475Z,100973.19
2022-10-29T20:52:10.715Z,100968.28
2022-10-29T20:57:13.101Z,100965.28
2022-10-29T21:02:15.738Z,100951.88
2022-10-29T21:07:18.939Z,100978.63
2022-10-29T21:12:21.362Z,100987.13
2022-10-29T21:17:23.736Z,100992.28
2022-10-29T21:22:25.981Z,100987.91
2022-10-29T21:27:28.359Z,100990.06
2022-10-29T21:32:30.599Z,101003.38
2022-10-29T21:37:33.065Z,100983.94
2022-10-29T21:42:35.436Z,100984.53
2022-10-29T21:47:37.729Z,100970.13
2022-10-29T21:52:40.617Z,100980.69
2022-10-29T21:57:45.790Z,100979.84
2022-10-29T22:02:48.321Z,100962.19
2022-10-29T22:07:50.693Z,100968.16
2022-10-29T22:18:13.252Z,100961.34
2022-10-29T22:28:18.789Z,100958.22
2022-10-29T22:33:21.374Z,100988.94
2022-10-29T22:38:23.629Z,100977.47
2022-10-29T22:43:25.973Z,100986.44
2022-10-29T22:48:28.268Z,100982.41
2022-10-29T22:53:31.319Z,100977.16
2022-10-29T22:58:33.920Z,100970.38
2022-10-29T23:03:37.886Z,100971.44
2022-10-29T23:08:40.484Z,100964.84
2022-10-29T23:13:43.602Z,100960.53
2022-10-29T23:18:50.319Z,100959.47
2022-10-29T23:23:53.108Z,100950.97
2022-10-29T23:28:55.712Z,100956.72
2022-10-29T23:33:59.003Z,100952.59
2022-10-29T23:39:02.068Z,100940.63
2022-10-29T23:44:04.918Z,100935.41
2022-10-29T23:49:07.172Z,100947.13
2022-10-29T23:54:09.793Z,100948.66
2022-10-29T23:59:12.120Z,100944.34
